Time;durP1;ratioP1;P1;durP2;ratioP2;P2;SDS_P1;SDS_P2;PMS_P1;PMS_P2;Temp;Humidity;BMP_temperature;BMP_pressure;BME280_temperature;BME280_humidity;BME280_pressure;Samples;Min_cycle;Max_cycle;Signal;HPM_P1;HPM_P2
2022/06/10 00:00:08;;;;;;;6.70;1.75;;;11.60;99.90;;;;;;5072792;28;20118;-70
2022/06/10 00:02:34;;;;;;;7.32;2.10;;;11.50;99.90;;;;;;5054329;28;20150;-70
2022/06/10 00:04:59;;;;;;;4.90;1.38;;;11.50;99.90;;;;;;5073036;28;20131;-71
2022/06/10 00:07:27;;;;;;;5.18;1.70;;;11.50;99.90;;;;;;5085728;28;20086;-72
2022/06/10 00:09:53;;;;;;;5.45;1.45;;;11.50;99.90;;;;;;5073068;28;20056;-71
2022/06/10 00:12:19;;;;;;;6.53;1.65;;;11.50;99.90;;;;;;5071599;28;20639;-71
2022/06/10 00:14:44;;;;;;;10.10;2.63;;;11.50;99.90;;;;;;5090305;28;20023;-71
2022/06/10 00:17:10;;;;;;;9.40;2.47;;;11.60;99.90;;;;;;5071143;28;20498;-71
2022/06/10 00:19:36;;;;;;;8.68;2.65;;;11.60;99.90;;;;;;5087129;28;20463;-71
2022/06/10 00:22:01;;;;;;;8.52;2.05;;;11.70;99.90;;;;;;5088456;28;21663;-71
2022/06/10 00:24:27;;;;;;;10.57;2.42;;;11.60;99.90;;;;;;5073688;28;20490;-70
2022/06/10 00:26:54;;;;;;;9.63;2.58;;;11.70;99.90;;;;;;5087002;28;20054;-71
2022/06/10 00:29:20;;;;;;;6.82;2.30;;;11.80;99.90;;;;;;5072408;28;20246;-71
2022/06/10 00:31:45;;;;;;;11.15;2.67;;;11.80;99.90;;;;;;5100468;27;20524;-71
2022/06/10 00:34:11;;;;;;;6.15;1.90;;;11.80;99.90;;;;;;5087793;28;20032;-71
2022/06/10 00:36:37;;;;;;;7.68;2.75;;;11.90;99.90;;;;;;5073435;28;20032;-71
2022/06/10 00:39:02;;;;;;;7.20;2.60;;;11.90;99.90;;;;;;5071288;28;20052;-71
2022/06/10 00:41:29;;;;;;;4.97;1.80;;;11.90;99.90;;;;;;5086807;28;22199;-71
2022/06/10 00:43:55;;;;;;;9.55;2.53;;;11.90;99.90;;;;;;5066648;28;20080;-71
2022/06/10 00:46:26;;;;;;;5.07;1.63;;;11.80;99.90;;;;;;5086867;28;20494;-71
2022/06/10 00:49:08;;;;;;;7.25;1.50;;;11.80;99.90;;;;;;5068823;28;20177;-70
2022/06/10 00:51:49;;;;;;;6.85;2.70;;;11.70;99.90;;;;;;5091394;28;20052;-70
2022/06/10 00:54:27;;;;;;;7.68;2.20;;;11.80;99.90;;;;;;5079558;28;20035;-71
2022/06/10 00:57:07;;;;;;;9.77;2.60;;;11.70;99.90;;;;;;5066067;28;20558;-71
2022/06/10 00:59:38;;;;;;;8.55;2.53;;;11.70;99.90;;;;;;5071376;28;20043;-71
2022/06/10 01:02:08;;;;;;;7.68;2.60;;;11.60;99.90;;;;;;5086202;28;20063;-71
2022/06/10 01:04:34;;;;;;;8.23;2.55;;;11.60;99.90;;;;;;5067021;28;20086;-71
2022/06/10 01:07:00;;;;;;;9.75;2.30;;;11.70;99.90;;;;;;5053071;28;20478;-71
2022/06/10 01:09:28;;;;;;;10.18;2.40;;;11.60;99.90;;;;;;5103468;27;20043;-71
2022/06/10 01:12:25;;;;;;;6.72;2.08;;;11.70;99.90;;;;;;5083115;28;20036;-71
2022/06/10 01:15:10;;;;;;;9.65;2.15;;;11.70;99.90;;;;;;5069022;28;20442;-71
2022/06/10 01:17:36;;;;;;;6.93;2.30;;;11.70;99.90;;;;;;5085924;28;20036;-71
2022/06/10 01:20:35;;;;;;;7.05;2.03;;;11.70;99.90;;;;;;5104686;27;20040;-70
2022/06/10 01:23:46;;;;;;;7.43;2.20;;;11.70;99.90;;;;;;5053705;28;20054;-71
2022/06/10 01:26:30;;;;;;;12.43;2.42;;;11.80;99.90;;;;;;5067620;28;20032;-71
2022/06/10 01:29:01;;;;;;;11.10;2.10;;;11.80;99.90;;;;;;5070442;28;20068;-71
2022/06/10 01:31:41;;;;;;;8.65;2.38;;;11.70;99.90;;;;;;5087907;28;20394;-71
2022/06/10 01:34:18;;;;;;;7.90;2.17;;;11.70;99.90;;;;;;5087769;28;20036;-71
2022/06/10 01:37:20;;;;;;;9.30;2.38;;;11.70;99.90;;;;;;5071337;28;20134;-71
2022/06/10 01:40:21;;;;;;;5.97;1.83;;;11.60;99.90;;;;;;5030003;28;20054;-71
2022/06/10 01:43:44;;;;;;;6.40;2.13;;;11.60;99.90;;;;;;5054212;28;20047;-70
2022/06/10 01:46:13;;;;;;;5.65;2.30;;;11.50;99.90;;;;;;4991826;28;20036;-71
2022/06/10 01:48:43;;;;;;;10.45;2.13;;;11.60;99.90;;;;;;5007261;28;20045;-71
2022/06/10 01:51:28;;;;;;;12.38;2.38;;;11.50;99.90;;;;;;5057213;28;20048;-71
2022/06/10 01:54:00;;;;;;;10.40;3.30;;;11.60;99.90;;;;;;5086385;28;20040;-71
2022/06/10 01:56:34;;;;;;;16.77;2.80;;;11.60;99.90;;;;;;5087030;28;20284;-70
2022/06/10 01:59:14;;;;;;;10.15;2.42;;;11.60;99.90;;;;;;5069833;28;20089;-70
2022/06/10 02:01:45;;;;;;;9.95;2.80;;;11.60;99.90;;;;;;5071580;28;20482;-70
2022/06/10 02:04:22;;;;;;;7.05;2.08;;;11.60;99.90;;;;;;5073465;28;20047;-70
2022/06/10 02:06:56;;;;;;;12.18;2.45;;;11.60;99.90;;;;;;5066783;28;20097;-71
2022/06/10 02:09:28;;;;;;;9.73;2.08;;;11.60;99.90;;;;;;5085257;28;20043;-70
2022/06/10 02:11:59;;;;;;;9.45;2.28;;;11.60;99.90;;;;;;5067254;28;20050;-71
2022/06/10 02:14:33;;;;;;;12.43;2.45;;;11.60;99.90;;;;;;5071119;28;20146;-71
2022/06/10 02:17:04;;;;;;;13.85;3.72;;;11.60;99.90;;;;;;5081254;28;20040;-71
2022/06/10 02:19:42;;;;;;;5.25;2.30;;;11.60;99.90;;;;;;5087796;28;20127;-71
2022/06/10 02:22:12;;;;;;;9.43;2.25;;;11.60;99.90;;;;;;5090603;28;20062;-71
2022/06/10 02:24:46;;;;;;;10.25;1.80;;;11.50;99.90;;;;;;5099272;27;20490;-71
2022/06/10 02:27:20;;;;;;;5.82;2.20;;;11.50;99.90;;;;;;5071926;28;20040;-71
2022/06/10 02:30:27;;;;;;;8.65;1.90;;;11.40;99.90;;;;;;5065966;28;20104;-71
2022/06/10 02:32:55;;;;;;;12.90;2.55;;;11.40;99.90;;;;;;5054564;28;20144;-71
2022/06/10 02:35:24;;;;;;;10.57;2.22;;;11.40;99.90;;;;;;5101664;27;20079;-71
2022/06/10 02:37:53;;;;;;;10.95;2.00;;;11.40;99.90;;;;;;5074138;28;20609;-71
2022/06/10 02:40:32;;;;;;;5.88;1.77;;;11.40;99.90;;;;;;5067265;28;20035;-71
2022/06/10 02:43:21;;;;;;;6.05;1.80;;;11.30;99.90;;;;;;5087680;28;20067;-71
2022/06/10 02:45:59;;;;;;;7.38;2.13;;;11.30;99.90;;;;;;5100793;28;20097;-71
2022/06/10 02:48:54;;;;;;;11.23;2.95;;;11.30;99.90;;;;;;5089600;28;20042;-71
2022/06/10 02:51:20;;;;;;;8.27;2.05;;;11.20;99.90;;;;;;5088050;28;20039;-71
2022/06/10 02:53:46;;;;;;;11.93;2.25;;;11.20;99.90;;;;;;5071428;28;20131;-71
2022/06/10 02:56:24;;;;;;;6.65;2.20;;;11.20;99.90;;;;;;5067890;28;20123;-71
2022/06/10 03:01:57;;;;;;;5.90;2.20;;;11.20;99.90;;;;;;5070123;28;20051;-70
2022/06/10 03:05:01;;;;;;;7.35;1.65;;;11.00;99.90;;;;;;5088895;28;20043;-71
2022/06/10 03:07:56;;;;;;;6.38;2.38;;;10.90;99.90;;;;;;5031126;28;20491;-70
2022/06/10 03:10:39;;;;;;;6.93;1.85;;;11.00;99.90;;;;;;5071299;28;20036;-70
2022/06/10 03:13:27;;;;;;;12.05;2.58;;;10.90;99.90;;;;;;5068765;28;20052;-70
2022/06/10 03:16:12;;;;;;;8.55;2.30;;;10.90;99.90;;;;;;5085612;28;20119;-71
2022/06/10 03:19:25;;;;;;;5.95;2.42;;;10.90;99.90;;;;;;5055360;28;20043;-70
2022/06/10 03:22:33;;;;;;;7.55;2.38;;;11.00;99.90;;;;;;5001202;28;20077;-71
2022/06/10 03:25:24;;;;;;;15.60;2.53;;;10.90;99.90;;;;;;4990336;28;20154;-71
2022/06/10 03:28:10;;;;;;;8.02;2.40;;;11.00;99.90;;;;;;5083154;28;20075;-70
2022/06/10 03:30:53;;;;;;;8.75;2.97;;;11.00;99.90;;;;;;5049640;28;20085;-70
2022/06/10 03:34:03;;;;;;;9.88;3.13;;;11.00;99.90;;;;;;5089061;28;20447;-71
2022/06/10 03:36:33;;;;;;;10.73;2.90;;;11.00;99.90;;;;;;5062475;28;20086;-70
2022/06/10 03:39:01;;;;;;;14.90;3.95;;;11.10;99.90;;;;;;5088541;28;20023;-71
2022/06/10 03:41:31;;;;;;;7.57;2.10;;;11.20;99.90;;;;;;5067160;28;20036;-71
2022/06/10 03:44:01;;;;;;;10.52;2.70;;;11.20;99.90;;;;;;5088575;28;20051;-71
2022/06/10 03:46:30;;;;;;;12.15;1.92;;;11.20;99.90;;;;;;5068787;28;20109;-70
2022/06/10 03:48:58;;;;;;;11.52;2.70;;;11.30;99.90;;;;;;5070161;28;20490;-71
2022/06/10 03:51:23;;;;;;;14.10;3.03;;;11.30;99.90;;;;;;5086965;28;20401;-70
2022/06/10 03:53:50;;;;;;;7.15;2.63;;;11.30;99.90;;;;;;5069816;28;20040;-70
2022/06/10 03:56:24;;;;;;;8.23;2.20;;;11.40;99.90;;;;;;5067022;28;20085;-70
2022/06/10 03:58:50;;;;;;;10.45;3.83;;;11.50;99.90;;;;;;5069722;28;20031;-70
2022/06/10 04:01:15;;;;;;;8.27;2.17;;;11.60;99.90;;;;;;5084700;28;20081;-70
2022/06/10 04:03:41;;;;;;;7.93;2.22;;;11.60;99.90;;;;;;5076170;28;20044;-70
2022/06/10 04:06:07;;;;;;;10.98;2.55;;;11.80;99.90;;;;;;5090869;28;20048;-70
2022/06/10 04:08:33;;;;;;;11.35;2.28;;;12.20;99.90;;;;;;5074540;28;20040;-70
2022/06/10 04:10:59;;;;;;;13.73;2.63;;;12.40;99.90;;;;;;5073413;28;20539;-70
2022/06/10 04:13:24;;;;;;;12.07;1.92;;;12.60;99.90;;;;;;5087572;28;20366;-70
2022/06/10 04:15:50;;;;;;;11.23;3.55;;;12.90;99.90;;;;;;5085964;28;20036;-70
2022/06/10 04:18:16;;;;;;;7.53;2.47;;;13.10;99.90;;;;;;5089614;28;20093;-70
2022/06/10 04:20:42;;;;;;;9.05;1.98;;;13.30;99.90;;;;;;5092171;28;20517;-70
2022/06/10 04:23:08;;;;;;;10.23;2.05;;;13.50;99.90;;;;;;5106680;27;20039;-70
2022/06/10 04:25:36;;;;;;;9.95;1.70;;;13.80;99.90;;;;;;5091188;28;20032;-70
2022/06/10 04:28:02;;;;;;;15.10;2.75;;;14.30;99.90;;;;;;5072566;28;20052;-70
2022/06/10 04:30:32;;;;;;;8.95;1.95;;;15.30;99.90;;;;;;5088012;28;20032;-70
2022/06/10 04:32:59;;;;;;;7.15;2.38;;;16.70;99.90;;;;;;5073165;28;20051;-70
2022/06/10 04:35:26;;;;;;;12.45;2.35;;;18.20;99.90;;;;;;5071157;28;20490;-70
2022/06/10 04:37:53;;;;;;;7.18;2.63;;;19.40;99.90;;;;;;5087917;28;21687;-70
2022/06/10 04:40:22;;;;;;;8.73;1.90;;;20.50;99.90;;;;;;5070802;28;20063;-69
2022/06/10 04:42:49;;;;;;;11.50;1.90;;;21.60;99.90;;;;;;5089360;28;20425;-70
2022/06/10 04:45:17;;;;;;;12.40;2.25;;;22.30;99.90;;;;;;5055186;28;20040;-70
2022/06/10 04:47:43;;;;;;;6.80;1.80;;;23.10;99.90;;;;;;5089621;28;20055;-70
2022/06/10 04:50:11;;;;;;;7.65;2.03;;;23.70;99.90;;;;;;5088759;28;20697;-70
2022/06/10 04:52:37;;;;;;;8.43;1.95;;;24.30;99.90;;;;;;5073913;28;20375;-70
2022/06/10 04:55:04;;;;;;;8.73;1.52;;;24.50;99.90;;;;;;5084667;28;20219;-70
2022/06/10 04:57:30;;;;;;;9.32;1.70;;;25.10;99.90;;;;;;5068598;28;20051;-70
2022/06/10 04:59:55;;;;;;;9.50;2.25;;;25.40;99.90;;;;;;5066833;28;20497;-70
2022/06/10 05:02:21;;;;;;;5.93;1.58;;;25.60;99.90;;;;;;5085743;28;20060;-70
2022/06/10 05:04:47;;;;;;;8.75;1.52;;;25.70;99.90;;;;;;5069142;28;20050;-70
2022/06/10 05:07:13;;;;;;;8.38;1.98;;;26.00;99.90;;;;;;5074018;28;20047;-70
2022/06/10 05:09:39;;;;;;;7.07;1.73;;;26.20;99.90;;;;;;5090396;28;20043;-70
2022/06/10 05:12:05;;;;;;;9.02;2.00;;;25.70;99.80;;;;;;5066300;28;20048;-70
2022/06/10 05:14:31;;;;;;;9.85;2.58;;;25.80;99.90;;;;;;5069168;28;20051;-70
2022/06/10 05:16:57;;;;;;;10.20;1.95;;;26.00;99.80;;;;;;5062858;28;20397;-70
2022/06/10 05:19:24;;;;;;;10.07;1.92;;;25.10;99.90;;;;;;5092003;28;20050;-70
2022/06/10 05:21:50;;;;;;;6.18;1.90;;;23.90;99.90;;;;;;5065709;28;20058;-70
2022/06/10 05:24:16;;;;;;;10.77;2.70;;;22.90;99.90;;;;;;5073190;28;20390;-70
2022/06/10 05:26:42;;;;;;;10.10;2.55;;;21.80;99.90;;;;;;5068380;28;20161;-70
2022/06/10 05:29:07;;;;;;;13.20;2.60;;;20.80;99.90;;;;;;5087935;28;20047;-70
2022/06/10 05:31:33;;;;;;;10.98;3.10;;;20.10;99.90;;;;;;5084231;28;20031;-70
2022/06/10 05:36:44;;;;;;;12.85;2.90;;;18.90;99.90;;;;;;5085770;28;20431;-70
2022/06/10 05:39:09;;;;;;;11.82;2.33;;;18.50;99.90;;;;;;5085383;28;20047;-70
2022/06/10 05:44:19;;;;;;;12.75;2.22;;;17.70;99.90;;;;;;5070620;28;21025;-69
2022/06/10 05:46:45;;;;;;;9.80;2.10;;;17.40;99.90;;;;;;5069509;28;20044;-69
2022/06/10 05:49:11;;;;;;;12.15;2.47;;;17.20;99.90;;;;;;5072979;28;20052;-69
2022/06/10 05:51:37;;;;;;;11.68;2.72;;;16.90;99.90;;;;;;5071842;28;20044;-69
2022/06/10 05:54:04;;;;;;;13.38;2.95;;;16.80;99.90;;;;;;5072347;28;20058;-70
2022/06/10 05:56:30;;;;;;;11.68;2.35;;;16.60;99.90;;;;;;5070976;28;20054;-70
2022/06/10 05:58:56;;;;;;;9.00;2.42;;;16.60;99.90;;;;;;5087230;28;20035;-69
2022/06/10 06:01:22;;;;;;;13.23;2.65;;;16.50;99.90;;;;;;5070192;28;20050;-69
2022/06/10 06:03:48;;;;;;;10.07;2.47;;;16.40;99.90;;;;;;5083218;28;20043;-69
2022/06/10 06:06:14;;;;;;;9.88;1.90;;;16.30;99.90;;;;;;5072412;28;20043;-69
2022/06/10 06:08:40;;;;;;;15.40;3.65;;;16.20;99.90;;;;;;5089868;28;20035;-69
2022/06/10 06:11:06;;;;;;;17.23;3.00;;;16.10;99.90;;;;;;5071551;28;20048;-69
2022/06/10 06:13:32;;;;;;;9.88;2.13;;;16.00;99.90;;;;;;5086246;28;20054;-69
2022/06/10 06:15:58;;;;;;;11.45;2.80;;;16.00;99.90;;;;;;5088165;28;20032;-69
2022/06/10 06:18:24;;;;;;;12.38;2.58;;;16.00;99.90;;;;;;5071139;28;20092;-69
2022/06/10 06:20:50;;;;;;;13.23;2.92;;;15.80;99.90;;;;;;5087678;28;20449;-69
2022/06/10 06:23:15;;;;;;;10.02;2.75;;;15.80;99.90;;;;;;5092036;28;20032;-69
2022/06/10 06:25:41;;;;;;;12.35;3.22;;;15.80;99.90;;;;;;5072729;28;20039;-68
2022/06/10 06:28:07;;;;;;;16.63;3.30;;;15.80;99.90;;;;;;5089344;28;20044;-68
2022/06/10 06:30:36;;;;;;;13.93;2.95;;;15.80;99.90;;;;;;5068773;28;20044;-68
2022/06/10 06:33:06;;;;;;;10.25;2.85;;;15.80;99.90;;;;;;5071148;28;20036;-68
2022/06/10 06:35:34;;;;;;;11.45;4.25;;;15.90;99.90;;;;;;5090310;28;20055;-69
2022/06/10 06:38:01;;;;;;;28.00;5.18;;;16.00;99.90;;;;;;5071232;28;20117;-69
2022/06/10 06:40:27;;;;;;;10.18;2.95;;;16.00;99.90;;;;;;5091346;28;20566;-68
2022/06/10 06:42:53;;;;;;;11.70;2.88;;;16.00;99.90;;;;;;5070106;28;20056;-68
2022/06/10 06:45:20;;;;;;;12.68;2.83;;;16.00;99.90;;;;;;5088573;28;20052;-68
2022/06/10 06:47:46;;;;;;;13.02;3.35;;;16.00;99.90;;;;;;5075292;28;20438;-68
2022/06/10 06:50:17;;;;;;;8.32;3.10;;;16.00;99.90;;;;;;5072820;28;20077;-68
2022/06/10 06:52:43;;;;;;;8.88;3.85;;;16.00;99.90;;;;;;5087401;28;20032;-68
2022/06/10 06:55:09;;;;;;;14.05;3.97;;;16.00;99.90;;;;;;5090534;28;20036;-68
2022/06/10 06:57:35;;;;;;;19.77;4.47;;;16.10;99.90;;;;;;5069950;28;20036;-69
2022/06/10 07:00:06;;;;;;;13.30;3.60;;;16.10;99.90;;;;;;5085583;28;20047;-68
2022/06/10 07:02:33;;;;;;;14.90;4.30;;;16.10;99.90;;;;;;5063836;28;20126;-68
2022/06/10 07:04:59;;;;;;;12.68;3.70;;;16.20;99.90;;;;;;5082025;28;20055;-68
2022/06/10 07:07:25;;;;;;;12.95;3.92;;;16.20;99.90;;;;;;5062081;28;20036;-68
2022/06/10 07:09:51;;;;;;;13.40;4.25;;;16.30;99.90;;;;;;5070878;28;20179;-68
2022/06/10 07:12:17;;;;;;;16.15;3.67;;;16.30;99.90;;;;;;5070228;28;20044;-68
2022/06/10 07:14:43;;;;;;;19.48;4.20;;;16.30;99.90;;;;;;5070493;28;20044;-68
2022/06/10 07:17:08;;;;;;;18.35;3.97;;;16.30;99.90;;;;;;5071146;28;20051;-68
2022/06/10 07:19:34;;;;;;;9.75;3.72;;;16.40;99.90;;;;;;5089550;28;20494;-68
2022/06/10 07:22:00;;;;;;;11.02;3.53;;;16.40;99.90;;;;;;5088405;28;20046;-68
2022/06/10 07:24:25;;;;;;;12.25;3.45;;;16.40;99.90;;;;;;5087503;28;20058;-68
2022/06/10 07:26:51;;;;;;;17.10;5.22;;;16.40;99.90;;;;;;5087956;28;20032;-68
2022/06/10 07:29:18;;;;;;;8.60;2.80;;;16.50;99.90;;;;;;5086627;28;20044;-68
2022/06/10 07:31:44;;;;;;;9.10;3.17;;;16.50;99.90;;;;;;5086922;28;20092;-68
2022/06/10 07:34:10;;;;;;;19.15;3.42;;;16.50;99.90;;;;;;5052960;28;20036;-69
2022/06/10 07:36:38;;;;;;;11.48;3.22;;;16.60;99.90;;;;;;5092903;28;20119;-68
2022/06/10 07:39:04;;;;;;;21.58;5.22;;;16.70;99.90;;;;;;5091566;28;20161;-68
2022/06/10 07:44:14;;;;;;;12.10;3.28;;;17.00;99.90;;;;;;5086914;28;20044;-68
2022/06/10 07:46:40;;;;;;;18.08;3.63;;;17.00;99.90;;;;;;5071621;28;20050;-68
2022/06/10 07:49:06;;;;;;;8.43;3.28;;;17.00;99.90;;;;;;5065419;28;20040;-68
2022/06/10 07:51:31;;;;;;;10.15;3.08;;;17.00;99.90;;;;;;5105439;27;20070;-68
2022/06/10 07:53:57;;;;;;;13.57;4.22;;;17.00;99.90;;;;;;5092260;28;20119;-68
2022/06/10 07:56:23;;;;;;;8.98;3.30;;;17.00;99.90;;;;;;5090133;28;20042;-68
2022/06/10 07:58:50;;;;;;;10.18;3.72;;;17.00;99.90;;;;;;5088817;28;20039;-68
2022/06/10 08:01:17;;;;;;;13.23;4.05;;;17.00;99.90;;;;;;5075308;28;20032;-68
2022/06/10 08:03:42;;;;;;;11.23;3.97;;;17.00;99.90;;;;;;5071204;28;20051;-68
2022/06/10 08:06:10;;;;;;;12.32;3.97;;;16.90;99.90;;;;;;5089184;28;20035;-68
2022/06/10 08:08:36;;;;;;;11.95;3.33;;;17.00;99.90;;;;;;5104066;27;20072;-68
2022/06/10 08:11:02;;;;;;;13.63;4.80;;;17.00;99.90;;;;;;5105506;27;20123;-68
2022/06/10 08:13:28;;;;;;;12.82;3.88;;;16.90;99.90;;;;;;5070284;28;20532;-68
2022/06/10 08:15:54;;;;;;;12.30;4.05;;;17.00;99.90;;;;;;5072322;28;20546;-68
2022/06/10 08:18:21;;;;;;;22.20;4.40;;;17.00;99.90;;;;;;5091900;28;20123;-68
2022/06/10 08:23:33;;;;;;;11.10;3.53;;;17.00;99.90;;;;;;5091342;28;20978;-68
2022/06/10 08:26:00;;;;;;;11.45;4.05;;;17.00;99.90;;;;;;5089935;28;20040;-68
2022/06/10 08:28:27;;;;;;;11.20;3.42;;;17.00;99.90;;;;;;5100290;27;20032;-68
2022/06/10 08:30:52;;;;;;;12.45;3.60;;;17.10;99.90;;;;;;5067496;28;20607;-68
2022/06/10 08:33:18;;;;;;;10.30;3.63;;;17.20;99.90;;;;;;5054540;28;20043;-68
2022/06/10 08:35:46;;;;;;;13.45;3.33;;;17.20;99.90;;;;;;5101166;27;20082;-68
2022/06/10 08:38:15;;;;;;;9.13;2.90;;;17.30;99.90;;;;;;5075725;28;20035;-68
2022/06/10 08:40:44;;;;;;;15.10;3.45;;;17.30;99.90;;;;;;5090063;28;20042;-68
2022/06/10 08:43:27;;;;;;;12.25;3.03;;;17.40;99.90;;;;;;5088632;28;20119;-68
2022/06/10 08:46:12;;;;;;;9.15;3.05;;;17.60;99.90;;;;;;5098356;27;20042;-68
2022/06/10 08:48:38;;;;;;;12.05;2.97;;;17.70;99.90;;;;;;5090373;28;20036;-68
2022/06/10 08:51:12;;;;;;;8.00;2.70;;;17.70;99.90;;;;;;5091201;28;20105;-68
2022/06/10 08:54:14;;;;;;;12.82;3.05;;;17.90;99.90;;;;;;5071396;28;20040;-68
2022/06/10 08:56:52;;;;;;;25.33;4.82;;;17.90;99.90;;;;;;5088710;28;20043;-68
2022/06/10 08:59:27;;;;;;;13.35;2.63;;;17.90;99.90;;;;;;5058663;28;20440;-68
2022/06/10 09:02:13;;;;;;;19.27;3.25;;;18.00;99.90;;;;;;5074618;28;20043;-68
2022/06/10 09:04:53;;;;;;;7.60;2.55;;;17.90;99.90;;;;;;5071837;28;20141;-68
2022/06/10 09:07:56;;;;;;;9.15;2.00;;;18.00;99.90;;;;;;5077067;28;20044;-68
2022/06/10 09:10:35;;;;;;;9.25;2.78;;;18.00;99.90;;;;;;5083380;28;20059;-68
2022/06/10 09:13:25;;;;;;;8.75;2.42;;;17.90;99.90;;;;;;5085306;28;20089;-68
2022/06/10 09:16:09;;;;;;;13.85;3.28;;;17.80;99.90;;;;;;5090830;28;20051;-68
2022/06/10 09:18:46;;;;;;;11.07;2.30;;;17.80;99.90;;;;;;5088657;28;20031;-68
2022/06/10 09:21:23;;;;;;;14.02;2.75;;;17.70;99.90;;;;;;5071134;28;20086;-68
2022/06/10 09:23:49;;;;;;;13.60;4.05;;;17.70;99.90;;;;;;5065301;28;20080;-68
2022/06/10 09:26:39;;;;;;;12.85;2.83;;;17.70;99.90;;;;;;5090986;28;20067;-68
2022/06/10 09:29:05;;;;;;;11.15;3.22;;;17.80;99.90;;;;;;5073812;28;20055;-68
2022/06/10 09:31:38;;;;;;;7.07;2.47;;;17.80;99.90;;;;;;5091568;28;20089;-68
2022/06/10 09:34:19;;;;;;;13.43;3.35;;;17.80;99.90;;;;;;5067641;28;20499;-68
2022/06/10 09:36:50;;;;;;;12.45;3.00;;;17.80;99.90;;;;;;5070109;28;20031;-68
2022/06/10 09:42:48;;;;;;;8.07;3.50;;;17.90;99.90;;;;;;5066284;28;20044;-68
2022/06/10 09:46:00;;;;;;;12.60;2.63;;;18.10;99.90;;;;;;5071992;28;20062;-68
2022/06/10 09:49:03;;;;;;;12.10;3.20;;;18.00;99.90;;;;;;5095702;27;20564;-68
2022/06/10 09:52:04;;;;;;;7.82;3.08;;;18.10;99.90;;;;;;5104309;27;20040;-68
2022/06/10 09:54:49;;;;;;;12.90;2.80;;;18.00;99.90;;;;;;5091496;28;20044;-68
2022/06/10 09:57:43;;;;;;;9.30;3.38;;;18.20;99.90;;;;;;5068297;28;20040;-68
2022/06/10 10:00:24;;;;;;;12.95;3.15;;;18.30;99.90;;;;;;5071802;28;20027;-68
2022/06/10 10:03:06;;;;;;;11.40;3.35;;;18.50;99.90;;;;;;5090842;28;20134;-68
2022/06/10 10:05:54;;;;;;;12.57;2.85;;;18.60;99.90;;;;;;5070618;28;20036;-68
2022/06/10 10:08:40;;;;;;;13.35;2.50;;;18.70;99.90;;;;;;5090134;28;20080;-68
2022/06/10 10:11:26;;;;;;;7.60;2.30;;;18.80;99.90;;;;;;5087058;28;20051;-68
2022/06/10 10:14:21;;;;;;;8.90;2.22;;;18.90;99.90;;;;;;5097581;27;20055;-68
2022/06/10 10:17:01;;;;;;;12.57;3.33;;;19.00;99.90;;;;;;5069547;28;20024;-68
2022/06/10 10:19:52;;;;;;;7.30;1.75;;;19.00;99.90;;;;;;5089087;28;20696;-69
2022/06/10 10:22:46;;;;;;;13.43;2.50;;;19.00;99.90;;;;;;5105508;27;20044;-68
2022/06/10 10:25:17;;;;;;;10.35;2.15;;;19.10;99.90;;;;;;5079637;28;20036;-68
2022/06/10 10:27:46;;;;;;;11.40;2.63;;;19.20;99.90;;;;;;5090708;28;20036;-67
2022/06/10 10:30:25;;;;;;;13.70;2.33;;;19.30;99.90;;;;;;5086961;28;20517;-68
2022/06/10 10:33:00;;;;;;;9.68;2.33;;;19.30;99.90;;;;;;5091350;28;20447;-69
2022/06/10 10:35:38;;;;;;;8.20;2.22;;;19.40;99.90;;;;;;5090432;28;20047;-68
2022/06/10 10:38:11;;;;;;;11.20;2.22;;;19.30;99.90;;;;;;5071569;28;20039;-68
2022/06/10 10:40:43;;;;;;;8.90;2.35;;;19.30;99.90;;;;;;5072684;28;20139;-68
2022/06/10 10:43:20;;;;;;;10.68;2.47;;;19.30;99.90;;;;;;5091068;28;20031;-68
2022/06/10 10:46:03;;;;;;;11.10;2.40;;;19.20;99.90;;;;;;5089710;28;20040;-68
2022/06/10 10:48:45;;;;;;;10.15;3.03;;;19.20;99.90;;;;;;5087941;28;20031;-68
2022/06/10 10:51:11;;;;;;;9.82;2.45;;;19.10;99.90;;;;;;5089109;28;20048;-69
2022/06/10 10:53:42;;;;;;;11.65;3.10;;;19.10;99.90;;;;;;5102550;28;20036;-69
2022/06/10 10:56:10;;;;;;;11.75;3.03;;;19.20;99.90;;;;;;5085895;28;20070;-69
2022/06/10 10:58:40;;;;;;;11.55;2.97;;;19.20;99.90;;;;;;5091211;28;20126;-68
2022/06/10 11:01:43;;;;;;;8.75;2.65;;;19.20;99.90;;;;;;5093190;28;20060;-68
2022/06/10 11:03:59;;;;;;;11.90;3.03;;;19.30;99.90;;;;;;5069902;28;20051;-68
2022/06/10 11:06:27;;;;;;;11.90;3.58;;;19.30;99.90;;;;;;5087768;28;20056;-68
2022/06/10 11:08:57;;;;;;;15.68;3.17;;;19.30;99.90;;;;;;5075795;28;20051;-68
2022/06/10 11:11:31;;;;;;;8.65;3.28;;;19.40;99.90;;;;;;5072833;28;20059;-68
2022/06/10 11:14:00;;;;;;;12.68;2.97;;;19.70;99.90;;;;;;5092907;28;20040;-68
2022/06/10 11:16:26;;;;;;;10.50;2.45;;;19.90;99.90;;;;;;5103858;27;20071;-68
2022/06/10 11:19:11;;;;;;;9.38;2.72;;;19.90;99.90;;;;;;5098625;28;20525;-68
2022/06/10 11:21:50;;;;;;;7.70;1.98;;;20.00;99.90;;;;;;5107908;27;20722;-68
2022/06/10 11:24:19;;;;;;;9.40;2.60;;;20.00;99.90;;;;;;5073707;28;20040;-68
2022/06/10 11:26:50;;;;;;;11.35;2.78;;;20.00;99.90;;;;;;5071255;28;20044;-68
2022/06/10 11:29:16;;;;;;;11.90;3.53;;;20.30;99.90;;;;;;5071665;28;20036;-68
2022/06/10 11:31:48;;;;;;;6.72;2.15;;;20.40;99.90;;;;;;5073043;28;20515;-68
2022/06/10 11:34:22;;;;;;;7.75;2.50;;;20.60;99.90;;;;;;5066564;28;20538;-68
2022/06/10 11:36:51;;;;;;;12.20;2.53;;;20.70;99.90;;;;;;5059912;28;20032;-68
2022/06/10 11:39:25;;;;;;;10.55;2.33;;;20.90;99.90;;;;;;5068362;28;20044;-68
2022/06/10 11:42:07;;;;;;;13.20;3.63;;;20.80;99.90;;;;;;5076048;28;20043;-68
2022/06/10 11:44:40;;;;;;;8.32;2.83;;;20.90;99.90;;;;;;5076226;28;20772;-68
2022/06/10 11:47:28;;;;;;;8.85;3.17;;;20.80;99.90;;;;;;5084953;28;20073;-69
2022/06/10 11:50:19;;;;;;;15.93;3.63;;;20.80;99.90;;;;;;5086815;28;20035;-69
2022/06/10 11:53:13;;;;;;;7.38;2.65;;;21.00;99.90;;;;;;5094914;28;20048;-69
2022/06/10 11:55:41;;;;;;;9.50;2.53;;;21.00;99.90;;;;;;5093896;28;20047;-69
2022/06/10 12:01:16;;;;;;;12.88;3.30;;;20.80;99.90;;;;;;5093533;28;20618;-69
2022/06/10 12:04:04;;;;;;;9.95;2.55;;;20.70;99.90;;;;;;5093887;28;20032;-69
2022/06/10 12:06:38;;;;;;;9.77;2.63;;;20.70;99.90;;;;;;5093932;28;20043;-69
2022/06/10 12:09:15;;;;;;;9.85;2.70;;;20.80;99.90;;;;;;5090963;28;20046;-69
2022/06/10 12:12:01;;;;;;;10.02;2.45;;;20.90;99.90;;;;;;5077987;28;20478;-69
2022/06/10 12:14:45;;;;;;;8.05;2.03;;;20.90;99.90;;;;;;5110657;27;20496;-69
2022/06/10 12:17:24;;;;;;;9.90;2.78;;;21.10;99.90;;;;;;5095527;28;20405;-69
2022/06/10 12:20:11;;;;;;;13.73;2.60;;;21.20;99.90;;;;;;5074014;28;20380;-69
2022/06/10 12:22:37;;;;;;;10.77;2.28;;;21.20;99.90;;;;;;5074507;28;20039;-69
2022/06/10 12:25:16;;;;;;;10.30;1.77;;;21.30;99.90;;;;;;5108506;27;20051;-69
2022/06/10 12:27:52;;;;;;;10.32;2.05;;;21.30;99.90;;;;;;5073332;28;20053;-69
2022/06/10 12:30:38;;;;;;;11.32;2.42;;;21.40;99.90;;;;;;5091207;28;20149;-69
2022/06/10 12:33:11;;;;;;;7.70;2.28;;;21.50;99.90;;;;;;5075429;28;20047;-69
2022/06/10 12:35:37;;;;;;;6.55;1.60;;;21.50;99.90;;;;;;5076831;28;20093;-69
2022/06/10 12:38:12;;;;;;;7.93;2.03;;;21.50;99.90;;;;;;5094647;28;20548;-69
2022/06/10 12:40:51;;;;;;;11.35;2.53;;;21.50;99.90;;;;;;5091155;28;20036;-69
2022/06/10 12:43:47;;;;;;;13.73;2.45;;;21.60;99.90;;;;;;5073401;28;20044;-69
2022/06/10 12:46:28;;;;;;;12.70;2.20;;;21.70;99.90;;;;;;5067200;28;20040;-69
2022/06/10 12:48:54;;;;;;;11.05;2.40;;;21.70;99.90;;;;;;5062718;28;20126;-69
2022/06/10 12:51:43;;;;;;;10.68;2.50;;;21.70;99.90;;;;;;5072041;28;20634;-69
2022/06/10 12:54:27;;;;;;;8.57;2.25;;;21.80;99.90;;;;;;5074307;28;20028;-69
2022/06/10 12:57:36;;;;;;;11.90;2.30;;;21.70;99.90;;;;;;5089306;28;20043;-69
2022/06/10 13:00:36;;;;;;;13.38;2.47;;;21.70;99.90;;;;;;5059062;28;20052;-69
2022/06/10 13:03:11;;;;;;;7.95;2.40;;;21.70;99.90;;;;;;5093525;28;20043;-69
2022/06/10 13:05:37;;;;;;;10.70;2.58;;;21.60;99.90;;;;;;5071841;28;20032;-69
2022/06/10 13:08:33;;;;;;;11.27;2.70;;;21.60;99.90;;;;;;5074807;28;20062;-69
2022/06/10 13:10:59;;;;;;;11.43;2.40;;;21.60;99.90;;;;;;5106581;27;20120;-69
2022/06/10 13:13:25;;;;;;;10.60;2.33;;;21.60;99.90;;;;;;5110092;27;20079;-69
2022/06/10 13:15:54;;;;;;;10.00;2.67;;;21.60;99.90;;;;;;5071790;28;20048;-69
2022/06/10 13:18:28;;;;;;;8.07;2.42;;;21.50;99.90;;;;;;5092179;28;20047;-69
2022/06/10 13:20:54;;;;;;;12.38;2.40;;;21.50;99.90;;;;;;5089512;28;20390;-69
2022/06/10 13:23:27;;;;;;;9.98;2.70;;;21.80;99.90;;;;;;5071550;28;20052;-69
2022/06/10 13:26:05;;;;;;;5.97;1.92;;;22.00;99.90;;;;;;5089736;28;20056;-69
2022/06/10 13:28:37;;;;;;;9.93;3.35;;;22.20;99.90;;;;;;5075822;28;21144;-69
2022/06/10 13:31:24;;;;;;;8.30;2.33;;;22.30;99.90;;;;;;5069530;28;20756;-69
2022/06/10 13:33:59;;;;;;;9.60;2.40;;;22.30;99.90;;;;;;5073596;28;20044;-69